Terminal Aerodrome Forecast
Issued by NWS Binghamton, NY

Home | Current Version | Previous Version | Text Only | Print | Product List | Glossary On
Versions: 1 2 3 4 5 6 7 8 9 10 11 12 13 14 15 16 17 18
000
FTUS41 KBGM 302343
TAFBGM
TAF
KBGM 302343Z 3100/3124 VRB03KT P6SM SCT035 BKN070
      TEMPO 3101/3103 5SM -SHRA BR OVC035
     FM310800 VRB03KT P6SM SCT080
      TEMPO 3110/3113 3SM BR
     FM311400 28010KT P6SM BKN050=

USA.gov is the U.S. government's official web portal to all federal, state and local government web resources and services.